Time;durP1;ratioP1;P1;durP2;ratioP2;P2;SDS_P1;SDS_P2;PMS_P1;PMS_P2;Temp;Humidity;BMP_temperature;BMP_pressure;BME280_temperature;BME280_humidity;BME280_pressure;Samples;Min_cycle;Max_cycle;Signal;HPM_P1;HPM_P2
2022/11/17 00:00:31;;;;;;;;;;;;;;;-143.57;100.00;51354.66;5078897;28;20020;-78
2022/11/17 00:02:57;;;;;;;;;;;;;;;-143.57;100.00;51368.59;5084039;28;19957;-78
2022/11/17 00:05:24;;;;;;;;;;;;;;;-143.57;100.00;51376.53;5077592;28;19924;-80
2022/11/17 00:07:51;;;;;;;;;;;;;;;-143.57;100.00;51346.72;5086473;28;19924;-76
2022/11/17 00:10:17;;;;;;;;;;;;;;;-143.57;100.00;51374.56;5082192;28;19943;-76
2022/11/17 00:15:31;;;;;;;;;;;;;;;-143.57;100.00;51318.88;5081832;28;19928;-76
2022/11/17 00:23:48;;;;;;;;;;;;;;;-143.57;100.00;51366.59;5085065;28;19977;-76
2022/11/17 00:26:17;;;;;;;;;;;;;;;-143.57;100.00;51330.81;5078918;28;20773;-76
2022/11/17 00:28:44;;;;;;;;;;;;;;;-143.57;100.00;51342.75;5081514;28;19985;-77
2022/11/17 00:34:05;;;;;;;;;;;;;;;-143.57;100.00;51366.59;5077674;28;20015;-76
2022/11/17 00:36:43;;;;;;;;;;;;;;;-143.57;100.00;51336.78;5083321;28;19932;-76
2022/11/17 00:39:11;;;;;;;;;;;;;;;-143.57;100.00;51354.66;5081127;28;19924;-77
2022/11/17 00:41:39;;;;;;;;;;;;;;;-143.57;100.00;51354.66;5076660;28;21476;-77
2022/11/17 00:44:06;;;;;;;;;;;;;;;-143.57;100.00;51376.53;5075871;28;19923;-77
2022/11/17 00:46:33;;;;;;;;;;;;;;;-143.57;100.00;51338.78;5079172;28;19958;-76
2022/11/17 00:49:00;;;;;;;;;;;;;;;-143.57;100.00;51338.78;5077377;28;19934;-76
2022/11/17 00:51:26;;;;;;;;;;;;;;;-143.57;100.00;51374.56;5083875;28;19924;-77
2022/11/17 00:53:53;;;;;;;;;;;;;;;-143.57;100.00;51334.78;5081073;28;19932;-77
2022/11/17 00:56:20;;;;;;;;;;;;;;;-143.57;100.00;51358.66;5081760;28;21568;-76
2022/11/17 00:58:47;;;;;;;;;;;;;;;-143.57;100.00;51358.66;5081243;28;20704;-77
2022/11/17 01:01:13;;;;;;;;;;;;;;;-143.57;100.00;51336.78;5088345;28;19963;-77
2022/11/17 01:03:40;;;;;;;;;;;;;;;-143.57;100.00;51362.63;5078216;28;20115;-76
2022/11/17 01:06:09;;;;;;;;;;;;;;;-143.57;100.00;51366.59;5079717;28;20053;-76
2022/11/17 01:08:35;;;;;;;;;;;;;;;-143.57;100.00;51342.75;5080373;28;19924;-76
2022/11/17 01:11:08;;;;;;;;;;;;;;;-143.57;100.00;51328.81;5064796;28;20013;-77
2022/11/17 01:13:35;;;;;;;;;;;;;;;-143.57;100.00;51346.72;5083713;28;19934;-77
2022/11/17 01:16:04;;;;;;;;;;;;;;;-143.57;100.00;51350.69;5109484;27;19924;-77
2022/11/17 01:18:31;;;;;;;;;;;;;;;-143.57;100.00;51340.75;5076683;28;20427;-77
2022/11/17 01:21:02;;;;;;;;;;;;;;;-143.57;100.00;51334.78;5076486;28;19963;-77
2022/11/17 01:23:29;;;;;;;;;;;;;;;-143.57;100.00;51394.44;5083962;28;20620;-77
2022/11/17 01:26:10;;;;;;;;;;;;;;;-143.57;100.00;51350.69;5082244;28;19920;-77
2022/11/17 01:28:37;;;;;;;;;;;;;;;-143.57;100.00;51354.66;5103019;27;19964;-77
2022/11/17 01:31:05;;;;;;;;;;;;;;;-143.57;100.00;51362.63;5081585;28;20253;-77
2022/11/17 01:33:32;;;;;;;;;;;;;;;-143.57;100.00;51366.59;5092521;27;19924;-77
2022/11/17 01:36:01;;;;;;;;;;;;;;;-143.57;100.00;51338.78;5082444;28;19935;-77
2022/11/17 01:38:27;;;;;;;;;;;;;;;-143.57;100.00;51374.56;5083170;28;20439;-77
2022/11/17 01:40:55;;;;;;;;;;;;;;;-143.57;100.00;51346.72;5076863;28;20668;-77
2022/11/17 01:43:34;;;;;;;;;;;;;;;-143.57;100.00;51370.56;5083117;28;19927;-77
2022/11/17 01:46:03;;;;;;;;;;;;;;;-143.57;100.00;51299.00;5077057;28;19924;-77
2022/11/17 01:48:30;;;;;;;;;;;;;;;-143.57;100.00;51308.94;5081630;28;20007;-77
2022/11/17 01:50:57;;;;;;;;;;;;;;;-143.57;100.00;51346.72;5084418;28;20349;-76
2022/11/17 01:53:27;;;;;;;;;;;;;;;-143.57;100.00;51342.75;5084646;28;20019;-77
2022/11/17 01:55:56;;;;;;;;;;;;;;;-143.57;100.00;51384.50;5081224;28;19959;-76
2022/11/17 01:58:25;;;;;;;;;;;;;;;-143.57;100.00;51374.56;5080589;28;20584;-76
2022/11/17 02:00:53;;;;;;;;;;;;;;;-143.57;100.00;51370.56;5065897;28;20682;-76
2022/11/17 02:03:21;;;;;;;;;;;;;;;-143.57;100.00;51386.47;5084254;28;20048;-77
2022/11/17 02:05:53;;;;;;;;;;;;;;;-143.57;100.00;51362.63;5082302;28;19931;-76
2022/11/17 02:08:22;;;;;;;;;;;;;;;-143.57;100.00;51362.63;5077130;28;19978;-76
2022/11/17 02:10:50;;;;;;;;;;;;;;;-143.57;100.00;51358.66;5095919;27;19967;-76
2022/11/17 02:13:18;;;;;;;;;;;;;;;-143.57;100.00;51350.69;5081243;28;20679;-76
2022/11/17 02:15:45;;;;;;;;;;;;;;;-143.57;100.00;51324.84;5080296;28;20859;-76
2022/11/17 02:18:12;;;;;;;;;;;;;;;-143.57;100.00;51392.44;5077442;28;19955;-76
2022/11/17 02:20:48;;;;;;;;;;;;;;;-143.57;100.00;51320.88;5079800;28;20010;-76
2022/11/17 02:23:30;;;;;;;;;;;;;;;-143.57;100.00;51350.69;5065140;28;19931;-76
2022/11/17 02:26:16;;;;;;;;;;;;;;;-143.57;100.00;51398.41;5087496;28;20019;-76
2022/11/17 02:28:59;;;;;;;;;;;;;;;-143.57;100.00;51330.81;5083135;28;19989;-76
2022/11/17 02:31:45;;;;;;;;;;;;;;;-143.57;100.00;51350.69;5081459;28;20005;-76
2022/11/17 02:34:27;;;;;;;;;;;;;;;-143.57;100.00;51360.63;5083970;28;20027;-76
2022/11/17 02:37:05;;;;;;;;;;;;;;;-143.57;100.00;51342.75;5086092;28;19995;-76
2022/11/17 02:39:35;;;;;;;;;;;;;;;-143.57;100.00;51362.63;5086662;28;20015;-76
2022/11/17 02:42:13;;;;;;;;;;;;;;;-143.57;100.00;51360.63;5086948;28;19931;-76
2022/11/17 02:44:55;;;;;;;;;;;;;;;-143.57;100.00;51362.63;5081829;28;20489;-76
2022/11/17 02:47:24;;;;;;;;;;;;;;;-143.57;100.00;51334.78;5086363;28;20016;-76
2022/11/17 02:49:59;;;;;;;;;;;;;;;-143.57;100.00;51342.75;5085338;28;20005;-76
2022/11/17 02:52:26;;;;;;;;;;;;;;;-143.57;100.00;51390.47;5087556;28;20437;-76
2022/11/17 02:54:58;;;;;;;;;;;;;;;-143.57;100.00;51346.72;5086455;28;19938;-76
2022/11/17 02:57:27;;;;;;;;;;;;;;;-143.57;100.00;51366.59;5081425;28;20060;-76
2022/11/17 02:59:55;;;;;;;;;;;;;;;-143.57;100.00;51330.81;5080602;28;20016;-76
2022/11/17 03:02:25;;;;;;;;;;;;;;;-143.57;100.00;51370.56;5080204;28;19924;-76
2022/11/17 03:04:52;;;;;;;;;;;;;;;-143.57;100.00;51370.56;5081209;28;19932;-76
2022/11/17 03:07:19;;;;;;;;;;;;;;;-143.57;100.00;51362.63;5081412;28;19974;-76
2022/11/17 03:09:50;;;;;;;;;;;;;;;-143.57;100.00;51338.78;5078795;28;19958;-76
2022/11/17 03:12:35;;;;;;;;;;;;;;;-143.57;100.00;51346.72;5079125;28;19924;-76
2022/11/17 03:15:21;;;;;;;;;;;;;;;-143.57;100.00;51372.56;5083590;28;19925;-76
2022/11/17 03:17:47;;;;;;;;;;;;;;;-143.57;100.00;51358.66;5109306;27;19932;-76
2022/11/17 03:20:21;;;;;;;;;;;;;;;-143.57;100.00;51354.66;5064370;28;20389;-77
2022/11/17 03:22:53;;;;;;;;;;;;;;;-143.57;100.00;51354.66;5071894;28;20037;-76
2022/11/17 03:25:21;;;;;;;;;;;;;;;-143.57;100.00;51364.63;5078576;28;20042;-77
2022/11/17 03:27:52;;;;;;;;;;;;;;;-143.57;100.00;51358.66;5075925;28;19924;-76
2022/11/17 03:30:21;;;;;;;;;;;;;;;-143.57;100.00;51378.53;5076739;28;19934;-78
2022/11/17 03:32:50;;;;;;;;;;;;;;;-143.57;100.00;51338.78;5087218;27;19930;-76
2022/11/17 03:35:19;;;;;;;;;;;;;;;-143.57;100.00;51386.47;5076304;28;19928;-76
2022/11/17 03:37:50;;;;;;;;;;;;;;;-143.57;100.00;51366.59;5073071;28;20002;-76
2022/11/17 03:40:24;;;;;;;;;;;;;;;-143.57;100.00;51362.63;5079045;28;19935;-76
2022/11/17 03:42:53;;;;;;;;;;;;;;;-143.57;100.00;51326.84;5082178;27;19924;-76
2022/11/17 03:45:20;;;;;;;;;;;;;;;-143.57;100.00;51374.56;5071293;28;19932;-76
2022/11/17 03:47:50;;;;;;;;;;;;;;;-143.57;100.00;51362.63;5077828;28;19936;-76
2022/11/17 03:50:20;;;;;;;;;;;;;;;-143.57;100.00;51372.56;5073336;28;20744;-76
2022/11/17 03:52:48;;;;;;;;;;;;;;;-143.57;100.00;51378.53;5074646;28;19942;-76
2022/11/17 03:55:15;;;;;;;;;;;;;;;-143.57;100.00;51378.53;5078360;28;20009;-76
2022/11/17 03:58:02;;;;;;;;;;;;;;;-143.57;100.00;51378.53;5108093;27;19985;-76
2022/11/17 04:00:29;;;;;;;;;;;;;;;-143.57;100.00;51352.69;5083619;28;20106;-75
2022/11/17 04:02:59;;;;;;;;;;;;;;;-143.57;100.00;51352.69;5081074;28;19932;-76
2022/11/17 04:05:26;;;;;;;;;;;;;;;-143.57;100.00;51354.66;5077444;28;19939;-76
2022/11/17 04:07:52;;;;;;;;;;;;;;;-143.57;100.00;51336.78;5077186;28;20018;-76
2022/11/17 04:10:21;;;;;;;;;;;;;;;-143.57;100.00;51350.69;5081652;28;19928;-76
2022/11/17 04:18:19;;;;;;;;;;;;;;;-143.57;100.00;51390.47;5081893;28;20038;-76
2022/11/17 04:20:50;;;;;;;;;;;;;;;-143.57;100.00;51358.66;5081179;28;19927;-76
2022/11/17 04:23:17;;;;;;;;;;;;;;;-143.57;100.00;51368.59;5085259;28;19927;-75
2022/11/17 04:28:38;;;;;;;;;;;;;;;-143.57;100.00;51342.75;5086071;28;19997;-76
2022/11/17 04:31:04;;;;;;;;;;;;;;;-143.57;100.00;51358.66;5066360;28;19967;-76
2022/11/17 04:33:32;;;;;;;;;;;;;;;-143.57;100.00;51374.56;5097800;27;20412;-75
2022/11/17 04:35:59;;;;;;;;;;;;;;;-143.57;100.00;51374.56;5081434;28;19928;-75
2022/11/17 04:38:26;;;;;;;;;;;;;;;-143.57;100.00;51330.81;5078548;28;19930;-75
2022/11/17 04:43:45;;;;;;;;;;;;;;;-143.57;100.00;51378.53;5085172;28;20064;-76
2022/11/17 04:46:12;;;;;;;;;;;;;;;-143.57;100.00;51354.66;5081683;28;19955;-77
2022/11/17 04:48:38;;;;;;;;;;;;;;;-143.57;100.00;51372.56;5082060;28;19928;-76
2022/11/17 04:51:05;;;;;;;;;;;;;;;-143.57;100.00;51394.44;5084019;28;19920;-75
2022/11/17 04:53:31;;;;;;;;;;;;;;;-143.57;100.00;51374.56;5084670;28;19924;-76
2022/11/17 04:55:59;;;;;;;;;;;;;;;-143.57;100.00;51374.56;5084488;28;19967;-76
2022/11/17 04:58:26;;;;;;;;;;;;;;;-143.57;100.00;51366.59;5080811;28;19930;-76
2022/11/17 05:00:53;;;;;;;;;;;;;;;-143.57;100.00;51376.53;5070862;28;19931;-76
2022/11/17 05:03:20;;;;;;;;;;;;;;;-143.57;100.00;51378.53;5084503;28;19968;-76
2022/11/17 05:05:47;;;;;;;;;;;;;;;-143.57;100.00;51338.78;5083217;28;20665;-76
2022/11/17 05:08:14;;;;;;;;;;;;;;;-143.57;100.00;51358.66;5082336;28;19928;-76
2022/11/17 05:13:26;;;;;;;;;;;;;;;-143.57;100.00;51346.72;5085636;28;20015;-76
2022/11/17 05:18:40;;;;;;;;;;;;;;;-143.57;100.00;51362.63;5086311;28;20383;-75
2022/11/17 05:21:08;;;;;;;;;;;;;;;-143.57;100.00;51390.47;5083736;28;19930;-76
2022/11/17 05:23:53;;;;;;;;;;;;;;;-143.57;100.00;51416.28;5086707;28;19989;-75
2022/11/17 05:26:21;;;;;;;;;;;;;;;-143.57;100.00;51386.47;5086423;28;19932;-75
2022/11/17 05:28:48;;;;;;;;;;;;;;;-143.57;100.00;51346.72;5085964;28;20003;-75
2022/11/17 05:31:15;;;;;;;;;;;;;;;-143.57;100.00;51390.47;5085636;28;20029;-75
2022/11/17 05:33:41;;;;;;;;;;;;;;;-143.57;100.00;51388.47;5087406;28;19993;-75
2022/11/17 05:36:09;;;;;;;;;;;;;;;-143.57;100.00;51370.56;5085491;28;19924;-75
2022/11/17 05:38:36;;;;;;;;;;;;;;;-143.57;100.00;51392.44;5091365;28;19934;-76
2022/11/17 05:41:03;;;;;;;;;;;;;;;-143.57;100.00;51364.63;5088275;28;20870;-75
2022/11/17 05:43:30;;;;;;;;;;;;;;;-143.57;100.00;51346.72;5086126;28;19978;-76
2022/11/17 05:45:56;;;;;;;;;;;;;;;-143.57;100.00;51354.66;5086575;28;19920;-78
2022/11/17 05:48:24;;;;;;;;;;;;;;;-143.57;100.00;51354.66;5118899;27;19971;-72
2022/11/17 05:50:52;;;;;;;;;;;;;;;-143.57;100.00;51362.63;5092029;28;19924;-71
2022/11/17 05:53:19;;;;;;;;;;;;;;;-143.57;100.00;51390.47;5083727;28;19951;-72
2022/11/17 05:55:45;;;;;;;;;;;;;;;-143.57;100.00;51350.69;5087141;28;20808;-71
2022/11/17 05:58:15;;;;;;;;;;;;;;;-143.57;100.00;51378.53;5081786;28;19920;-74
2022/11/17 06:00:42;;;;;;;;;;;;;;;-143.57;100.00;51390.47;5080754;28;19924;-73
2022/11/17 06:03:19;;;;;;;;;;;;;;;-143.57;100.00;51390.47;5080059;28;19920;-73
2022/11/17 06:05:46;;;;;;;;;;;;;;;-143.57;100.00;51398.41;5082657;28;19934;-73
2022/11/17 06:08:13;;;;;;;;;;;;;;;-143.57;100.00;51370.56;5060281;28;20306;-74
2022/11/17 06:10:40;;;;;;;;;;;;;;;-143.57;100.00;51374.56;5078899;28;20614;-74
2022/11/17 06:13:06;;;;;;;;;;;;;;;-143.57;100.00;51362.63;5079894;28;19981;-73
2022/11/17 06:15:34;;;;;;;;;;;;;;;-143.57;100.00;51372.56;5080817;28;20020;-74
2022/11/17 06:18:06;;;;;;;;;;;;;;;-143.57;100.00;51404.38;5072668;28;19932;-74
2022/11/17 06:20:34;;;;;;;;;;;;;;;-143.57;100.00;51338.78;5075326;28;19985;-74
2022/11/17 06:23:02;;;;;;;;;;;;;;;-143.57;100.00;51392.44;5074488;28;20020;-73
2022/11/17 06:25:29;;;;;;;;;;;;;;;-143.57;100.00;51422.25;5077030;28;20022;-73
2022/11/17 06:27:56;;;;;;;;;;;;;;;-143.57;100.00;51360.63;5074847;28;19982;-74
2022/11/17 06:30:23;;;;;;;;;;;;;;;-143.57;100.00;51398.41;5074691;28;21281;-73
2022/11/17 06:32:51;;;;;;;;;;;;;;;-143.57;100.00;51354.66;5082625;28;20060;-74
2022/11/17 06:35:18;;;;;;;;;;;;;;;-143.57;100.00;51358.66;5104616;27;20346;-74
2022/11/17 06:37:44;;;;;;;;;;;;;;;-143.57;100.00;51362.63;5079039;28;20007;-74
2022/11/17 06:40:12;;;;;;;;;;;;;;;-143.57;100.00;51376.53;5078234;28;19950;-74
2022/11/17 06:45:26;;;;;;;;;;;;;;;-143.57;100.00;51378.53;5073936;28;19936;-73
2022/11/17 06:47:53;;;;;;;;;;;;;;;-143.57;100.00;51366.59;5076403;28;20626;-73
2022/11/17 06:50:20;;;;;;;;;;;;;;;-143.57;100.00;51386.47;5077380;28;19928;-73
2022/11/17 06:52:46;;;;;;;;;;;;;;;-143.57;100.00;51368.59;5078107;28;19924;-73
2022/11/17 06:55:13;;;;;;;;;;;;;;;-143.57;100.00;51362.63;5075869;28;19931;-73
2022/11/17 06:57:40;;;;;;;;;;;;;;;-143.57;100.00;51402.38;5077094;28;19943;-73
2022/11/17 07:00:07;;;;;;;;;;;;;;;-143.57;100.00;51414.31;5081296;28;20018;-73
2022/11/17 07:02:35;;;;;;;;;;;;;;;-143.57;100.00;51414.31;5077141;28;20015;-73
2022/11/17 07:05:02;;;;;;;;;;;;;;;-143.57;100.00;51410.34;5077819;28;19939;-74
2022/11/17 07:07:29;;;;;;;;;;;;;;;-143.57;100.00;51358.66;5058488;28;20642;-74
2022/11/17 07:09:56;;;;;;;;;;;;;;;-143.57;100.00;51374.56;5080392;28;19934;-74
2022/11/17 07:12:23;;;;;;;;;;;;;;;-143.57;100.00;51382.50;5096543;27;19942;-74
2022/11/17 07:14:49;;;;;;;;;;;;;;;-143.57;100.00;51358.66;5082419;28;20324;-74
2022/11/17 07:17:16;;;;;;;;;;;;;;;-143.57;100.00;51352.69;5079448;28;19931;-74
2022/11/17 07:19:43;;;;;;;;;;;;;;;-143.57;100.00;51422.25;5082116;28;19928;-74
2022/11/17 07:22:09;;;;;;;;;;;;;;;-143.57;100.00;51390.47;5082941;28;20389;-74
2022/11/17 07:24:37;;;;;;;;;;;;;;;-143.57;100.00;51366.59;5061789;28;19951;-74
2022/11/17 07:27:05;;;;;;;;;;;;;;;-143.57;100.00;51378.53;5078451;28;19928;-74
2022/11/17 07:29:32;;;;;;;;;;;;;;;-143.57;100.00;51414.31;5079898;28;19961;-74
2022/11/17 07:31:58;;;;;;;;;;;;;;;-143.57;100.00;51390.47;5083765;28;19932;-74
2022/11/17 07:34:25;;;;;;;;;;;;;;;-143.57;100.00;51410.34;5076755;28;20537;-74
2022/11/17 07:36:51;;;;;;;;;;;;;;;-143.57;100.00;51390.47;5085011;28;21434;-74
2022/11/17 07:39:18;;;;;;;;;;;;;;;-143.57;100.00;51408.34;5081080;28;19931;-74
2022/11/17 07:41:47;;;;;;;;;;;;;;;-143.57;100.00;51394.44;5080484;28;20228;-73
2022/11/17 07:44:16;;;;;;;;;;;;;;;-143.57;100.00;51386.47;5075283;28;20179;-74
2022/11/17 07:46:42;;;;;;;;;;;;;;;-143.57;100.00;51398.41;5080922;28;19928;-74
2022/11/17 07:49:09;;;;;;;;;;;;;;;-143.57;100.00;51362.63;5077791;28;19985;-74
2022/11/17 07:51:36;;;;;;;;;;;;;;;-143.57;100.00;51400.41;5076961;28;19925;-74
2022/11/17 07:54:02;;;;;;;;;;;;;;;-143.57;100.00;51390.47;5077894;28;19932;-74
2022/11/17 07:56:29;;;;;;;;;;;;;;;-143.57;100.00;51400.41;5081740;28;20587;-74
2022/11/17 07:58:56;;;;;;;;;;;;;;;-143.57;100.00;51380.50;5082490;28;20624;-74
2022/11/17 08:01:26;;;;;;;;;;;;;;;-143.57;100.00;51386.47;5076508;28;19924;-74
2022/11/17 08:03:53;;;;;;;;;;;;;;;-143.57;100.00;51398.41;5080675;28;19928;-75
2022/11/17 08:06:21;;;;;;;;;;;;;;;-143.57;100.00;51370.56;5080355;28;19930;-74
2022/11/17 08:08:48;;;;;;;;;;;;;;;-143.57;100.00;51370.56;5084819;28;20515;-74
2022/11/17 08:11:16;;;;;;;;;;;;;;;-143.57;100.00;51404.38;5078698;28;19932;-72
2022/11/17 08:13:43;;;;;;;;;;;;;;;-143.57;100.00;51378.53;5083455;28;20342;-71
2022/11/17 08:16:11;;;;;;;;;;;;;;;-143.57;100.00;51354.66;5078092;28;19931;-74
2022/11/17 08:18:38;;;;;;;;;;;;;;;-143.57;100.00;51420.28;5092516;28;19935;-74
2022/11/17 08:21:05;;;;;;;;;;;;;;;-143.57;100.00;51430.22;5077876;28;20011;-74
2022/11/17 08:23:32;;;;;;;;;;;;;;;-143.57;100.00;51414.31;5080626;28;19934;-76
2022/11/17 08:26:00;;;;;;;;;;;;;;;-143.57;100.00;51428.22;5079770;28;19967;-75
2022/11/17 08:28:27;;;;;;;;;;;;;;;-143.57;100.00;51390.47;5080591;28;19928;-71
2022/11/17 08:30:53;;;;;;;;;;;;;;;-143.57;100.00;51390.47;5076327;28;20369;-71
2022/11/17 08:33:20;;;;;;;;;;;;;;;-143.57;100.00;51404.38;5078096;28;19932;-69
2022/11/17 08:35:46;;;;;;;;;;;;;;;-143.57;100.00;51386.47;5080038;28;19932;-68
2022/11/17 08:38:17;;;;;;;;;;;;;;;-143.57;100.00;51366.59;5077149;28;19930;-71
2022/11/17 08:40:44;;;;;;;;;;;;;;;-143.57;100.00;51366.59;5082414;28;19924;-71
2022/11/17 08:43:11;;;;;;;;;;;;;;;-143.57;100.00;51362.63;5078997;28;19931;-71
2022/11/17 08:45:40;;;;;;;;;;;;;;;-143.57;100.00;51394.44;5083350;28;20537;-74
2022/11/17 08:48:07;;;;;;;;;;;;;;;-143.57;100.00;51406.34;5079435;28;19928;-74
2022/11/17 08:50:34;;;;;;;;;;;;;;;-143.57;100.00;51378.53;5085207;28;19932;-74
2022/11/17 08:53:00;;;;;;;;;;;;;;;-143.57;100.00;51386.47;5082252;28;19938;-74
2022/11/17 08:55:27;;;;;;;;;;;;;;;-143.57;100.00;51396.41;5083715;28;19928;-74
2022/11/17 08:57:54;;;;;;;;;;;;;;;-143.57;100.00;51406.34;5082240;28;20020;-74
2022/11/17 09:00:21;;;;;;;;;;;;;;;-143.57;100.00;51394.44;5081190;28;20014;-71
2022/11/17 09:02:47;;;;;;;;;;;;;;;-143.57;100.00;51398.41;5091019;28;19945;-71
2022/11/17 09:05:14;;;;;;;;;;;;;;;-143.57;100.00;51412.31;5081109;28;20611;-70
2022/11/17 09:07:41;;;;;;;;;;;;;;;-143.57;100.00;51414.31;5086821;27;20077;-74
2022/11/17 09:10:09;;;;;;;;;;;;;;;-143.57;100.00;51412.31;5082954;28;20023;-74
2022/11/17 09:12:37;;;;;;;;;;;;;;;-143.57;100.00;51394.44;5081361;28;20398;-73
2022/11/17 09:15:04;;;;;;;;;;;;;;;-143.57;100.00;51366.59;5079586;28;19927;-73
2022/11/17 09:17:31;;;;;;;;;;;;;;;-143.57;100.00;51398.41;5085471;28;20432;-74
2022/11/17 09:19:57;;;;;;;;;;;;;;;-143.57;100.00;51378.53;5067883;28;19971;-74
2022/11/17 09:22:24;;;;;;;;;;;;;;;-143.57;100.00;51378.53;5077291;28;19967;-74
2022/11/17 09:24:51;;;;;;;;;;;;;;;-143.57;100.00;51408.34;5079866;28;20011;-73
2022/11/17 09:27:17;;;;;;;;;;;;;;;-143.57;100.00;51394.44;5082130;28;20011;-74
2022/11/17 09:29:44;;;;;;;;;;;;;;;-143.57;100.00;51390.47;5077227;28;20033;-73
2022/11/17 09:32:12;;;;;;;;;;;;;;;-143.57;100.00;51374.56;5082041;28;19987;-73
2022/11/17 09:34:38;;;;;;;;;;;;;;;-143.57;100.00;51378.53;5077827;28;19935;-74
2022/11/17 09:37:05;;;;;;;;;;;;;;;-143.57;100.00;51414.31;5079748;28;20020;-75
2022/11/17 09:39:32;;;;;;;;;;;;;;;-143.57;100.00;51374.56;5084615;28;19939;-71
2022/11/17 09:41:59;;;;;;;;;;;;;;;-143.57;100.00;51342.75;5076707;28;19925;-71
2022/11/17 09:44:38;;;;;;;;;;;;;;;-143.57;100.00;51386.47;5078520;28;20625;-71
2022/11/17 09:47:08;;;;;;;;;;;;;;;-143.57;100.00;51362.63;5074190;28;19939;-71
2022/11/17 09:49:41;;;;;;;;;;;;;;;-143.57;100.00;51418.28;5079713;28;19978;-71
2022/11/17 09:52:17;;;;;;;;;;;;;;;-143.57;100.00;51426.25;5076903;28;20025;-71
2022/11/17 09:54:47;;;;;;;;;;;;;;;-143.57;100.00;51398.41;5075753;28;20013;-71
2022/11/17 09:57:19;;;;;;;;;;;;;;;-143.57;100.00;51370.56;5082265;28;20394;-71
2022/11/17 09:59:51;;;;;;;;;;;;;;;-143.57;100.00;51402.38;5076583;28;19931;-71
2022/11/17 10:02:17;;;;;;;;;;;;;;;-143.57;100.00;51390.47;5070723;28;19942;-73
2022/11/17 10:04:44;;;;;;;;;;;;;;;-143.57;100.00;51374.56;5059544;28;19931;-71
2022/11/17 10:07:11;;;;;;;;;;;;;;;-143.57;100.00;51440.16;5075499;28;19927;-71
2022/11/17 10:09:41;;;;;;;;;;;;;;;-143.57;100.00;51398.41;5076853;28;19932;-71
2022/11/17 10:12:16;;;;;;;;;;;;;;;-143.57;100.00;51350.69;5078973;28;19928;-72
2022/11/17 10:14:43;;;;;;;;;;;;;;;-143.57;100.00;51358.66;5075710;28;19939;-73
2022/11/17 10:17:11;;;;;;;;;;;;;;;-143.57;100.00;51370.56;5074134;28;19924;-71
2022/11/17 10:19:39;;;;;;;;;;;;;;;-143.57;100.00;51394.44;5074792;28;19925;-74
2022/11/17 10:22:06;;;;;;;;;;;;;;;-143.57;100.00;51384.50;5074749;28;19957;-71
2022/11/17 10:24:41;;;;;;;;;;;;;;;-143.57;100.00;51358.66;5078145;28;20591;-71
2022/11/17 10:27:17;;;;;;;;;;;;;;;-143.57;100.00;51390.47;5081227;28;19950;-73
2022/11/17 10:30:03;;;;;;;;;;;;;;;-143.57;100.00;51350.69;5078306;28;20615;-77
2022/11/17 10:32:46;;;;;;;;;;;;;;;-143.57;100.00;51384.50;5082103;28;19993;-73
2022/11/17 10:35:16;;;;;;;;;;;;;;;-143.57;100.00;51380.50;5078449;28;19971;-72
2022/11/17 10:37:55;;;;;;;;;;;;;;;-143.57;100.00;51358.66;5079313;28;19924;-73
2022/11/17 10:40:42;;;;;;;;;;;;;;;-143.57;100.00;51380.50;5077112;28;20555;-74
2022/11/17 10:43:12;;;;;;;;;;;;;;;-143.57;100.00;51382.50;5083840;28;20629;-73
2022/11/17 10:45:44;;;;;;;;;;;;;;;-143.57;100.00;51346.72;5078525;28;19928;-73
2022/11/17 10:48:26;;;;;;;;;;;;;;;-143.57;100.00;51400.41;5073305;28;19955;-73
2022/11/17 10:50:57;;;;;;;;;;;;;;;-143.57;100.00;51406.34;5081547;28;19935;-73
2022/11/17 10:53:24;;;;;;;;;;;;;;;-143.57;100.00;51380.50;5084055;28;19924;-73
2022/11/17 10:55:55;;;;;;;;;;;;;;;-143.57;100.00;51388.47;5064493;28;19932;-74
2022/11/17 10:58:26;;;;;;;;;;;;;;;-143.57;100.00;51346.72;5080160;28;19928;-74
2022/11/17 11:00:58;;;;;;;;;;;;;;;-143.57;100.00;51354.66;5077376;28;19938;-73
2022/11/17 11:03:27;;;;;;;;;;;;;;;-143.57;100.00;51406.34;5083911;28;19928;-74
2022/11/17 11:06:01;;;;;;;;;;;;;;;-143.57;100.00;51368.59;5079633;28;19932;-74
2022/11/17 11:08:34;;;;;;;;;;;;;;;-143.57;100.00;51334.78;5078010;28;19928;-73
2022/11/17 11:11:06;;;;;;;;;;;;;;;-143.57;100.00;51366.59;5062845;28;20329;-76
2022/11/17 11:13:47;;;;;;;;;;;;;;;-143.57;100.00;51376.53;5084880;28;20400;-76
2022/11/17 11:16:14;;;;;;;;;;;;;;;-143.57;100.00;51356.66;5088448;28;19990;-75
2022/11/17 11:18:40;;;;;;;;;;;;;;;-143.57;100.00;51396.41;5080640;28;19932;-75
2022/11/17 11:21:22;;;;;;;;;;;;;;;-143.57;100.00;51364.63;5082690;28;19928;-78
2022/11/17 11:23:55;;;;;;;;;;;;;;;-143.57;100.00;51378.53;5081468;28;19924;-75
2022/11/17 11:26:24;;;;;;;;;;;;;;;-143.57;100.00;51338.78;5082743;28;19977;-72
2022/11/17 11:28:53;;;;;;;;;;;;;;;-143.57;100.00;51342.75;5079352;28;19939;-71
2022/11/17 11:31:31;;;;;;;;;;;;;;;-143.57;100.00;51358.66;5082925;28;19925;-73
2022/11/17 11:34:14;;;;;;;;;;;;;;;-143.57;100.00;51350.69;5079625;28;19946;-75
2022/11/17 11:37:01;;;;;;;;;;;;;;;-143.57;100.00;51374.56;5081938;28;19928;-72
2022/11/17 11:39:47;;;;;;;;;;;;;;;-143.57;100.00;51362.63;5073266;28;19924;-71
2022/11/17 11:42:23;;;;;;;;;;;;;;;-143.57;100.00;51324.84;5083018;28;20182;-73
2022/11/17 11:44:49;;;;;;;;;;;;;;;-143.57;100.00;51364.63;5083030;28;19996;-73
2022/11/17 11:47:25;;;;;;;;;;;;;;;-143.57;100.00;51354.66;5084995;28;20002;-71
2022/11/17 11:49:55;;;;;;;;;;;;;;;-143.57;100.00;51346.72;5076642;28;19928;-72
2022/11/17 11:52:44;;;;;;;;;;;;;;;-143.57;100.00;51368.59;5090075;28;19924;-69
2022/11/17 11:55:17;;;;;;;;;;;;;;;-143.57;100.00;51366.59;5086815;28;19920;-70
2022/11/17 11:57:54;;;;;;;;;;;;;;;-143.57;100.00;51346.72;5083141;28;19924;-73
2022/11/17 12:00:21;;;;;;;;;;;;;;;-143.57;100.00;51378.53;5078896;28;19920;-72
2022/11/17 12:03:03;;;;;;;;;;;;;;;-143.57;100.00;51330.81;5086217;28;19924;-71
2022/11/17 12:05:33;;;;;;;;;;;;;;;-143.57;100.00;51322.88;5075456;28;19928;-72
2022/11/17 12:08:06;;;;;;;;;;;;;;;-143.57;100.00;51350.69;5081641;28;20368;-73
2022/11/17 12:11:58;;;;;;;;;;;;;;;-143.57;100.00;51358.66;5071616;28;19932;-74
2022/11/17 12:13:47;;;;;;;;;;;;;;;-143.57;100.00;51350.69;5094592;28;19981;-70
2022/11/17 12:16:39;;;;;;;;;;;;;;;-143.57;100.00;51338.78;5090671;28;20233;-71
2022/11/17 12:19:25;;;;;;;;;;;;;;;-143.57;100.00;51350.69;5084964;28;19925;-71
2022/11/17 12:21:53;;;;;;;;;;;;;;;-143.57;100.00;51342.75;5080749;28;19932;-71
2022/11/17 12:24:31;;;;;;;;;;;;;;;-143.57;100.00;51342.75;5090037;28;19935;-75
2022/11/17 12:27:16;;;;;;;;;;;;;;;-143.57;100.00;51346.72;5092885;28;19931;-73
2022/11/17 12:29:44;;;;;;;;;;;;;;;-143.57;100.00;51390.47;5089528;28;20444;-71
2022/11/17 12:32:31;;;;;;;;;;;;;;;-143.57;100.00;51368.59;5087298;28;19920;-70
2022/11/17 12:35:16;;;;;;;;;;;;;;;-143.57;100.00;51366.59;5088613;28;19932;-69
2022/11/17 12:37:43;;;;;;;;;;;;;;;-143.57;100.00;51338.78;5080244;28;19957;-69
2022/11/17 12:40:29;;;;;;;;;;;;;;;-143.57;100.00;51370.56;5081135;28;19985;-72
2022/11/17 12:43:14;;;;;;;;;;;;;;;-143.57;100.00;51374.56;5083034;28;19935;-75
2022/11/17 12:46:00;;;;;;;;;;;;;;;-143.57;100.00;51370.56;5081580;28;19928;-74
2022/11/17 12:48:29;;;;;;;;;;;;;;;-143.57;100.00;51354.66;5103182;27;19928;-76
2022/11/17 12:51:06;;;;;;;;;;;;;;;-143.57;100.00;51346.72;5080762;28;20042;-74
2022/11/17 12:53:39;;;;;;;;;;;;;;;-143.57;100.00;51368.59;5084648;28;19920;-78
2022/11/17 12:56:13;;;;;;;;;;;;;;;-143.57;100.00;51350.69;5081544;28;19928;-72
2022/11/17 12:58:59;;;;;;;;;;;;;;;-143.57;100.00;51338.78;5084953;28;19924;-80
2022/11/17 13:01:42;;;;;;;;;;;;;;;-143.57;100.00;51330.81;5091556;28;19920;-78
2022/11/17 13:04:15;;;;;;;;;;;;;;;-143.57;100.00;51322.88;5101436;28;19984;-77